Time;durP1;ratioP1;P1;durP2;ratioP2;P2;SDS_P1;SDS_P2;PMS_P1;PMS_P2;Temp;Humidity;BMP_temperature;BMP_pressure;BME280_temperature;BME280_humidity;BME280_pressure;Samples;Min_cycle;Max_cycle;Signal;HPM_P1;HPM_P2
2023/10/02 00:01:06;;;;;;;25.20;16.77;;;;;;;-141.97;60.23;47484.47;4975100;28;20172;-91
2023/10/02 00:03:31;;;;;;;27.67;15.83;;;;;;;-141.97;60.15;47365.31;4975802;28;20179;-90
2023/10/02 00:05:58;;;;;;;27.67;17.27;;;;;;;-141.97;59.99;47509.47;4974622;28;20171;-91
2023/10/02 00:08:36;;;;;;;29.53;17.40;;;;;;;-141.97;60.11;47653.63;4974988;28;20164;-91
2023/10/02 00:11:35;;;;;;;22.63;14.67;;;;;;;-141.97;60.27;47415.28;4972766;28;20182;-91
2023/10/02 00:14:18;;;;;;;27.47;16.10;;;;;;;-141.97;60.35;47351.88;4973192;28;20180;-91
2023/10/02 00:16:42;;;;;;;27.23;17.90;;;;;;;-141.97;60.73;47311.50;4974165;28;20221;-90
2023/10/02 00:19:18;;;;;;;27.20;17.50;;;;;;;-141.97;60.53;47273.06;4973355;28;20183;-90
2023/10/02 00:21:46;;;;;;;25.87;17.60;;;;;;;-141.97;60.97;47303.81;4975015;28;20266;-91
2023/10/02 00:24:13;;;;;;;25.90;16.60;;;;;;;-141.97;60.58;47411.44;4973312;28;20172;-90
2023/10/02 00:26:39;;;;;;;24.70;16.60;;;;;;;-141.97;60.64;47273.06;4973978;28;20179;-91
2023/10/02 00:29:07;;;;;;;25.97;17.37;;;;;;;-141.97;60.67;47497.94;4972269;28;20220;-89
2023/10/02 00:31:36;;;;;;;26.53;17.63;;;;;;;-141.97;60.85;47380.69;4971718;28;20179;-90
2023/10/02 00:34:03;;;;;;;24.53;16.87;;;;;;;-141.97;60.75;47522.91;4971409;28;20262;-90
2023/10/02 00:36:30;;;;;;;27.53;18.07;;;;;;;-141.97;60.79;47717.06;4972162;28;20200;-91
2023/10/02 00:42:09;;;;;;;27.33;18.37;;;;;;;-141.97;60.47;47522.91;4972846;28;20651;-86
2023/10/02 00:44:51;;;;;;;24.37;17.90;;;;;;;-141.97;60.43;47488.31;4972354;28;20595;-87
2023/10/02 00:47:15;;;;;;;25.60;17.57;;;;;;;-141.97;60.36;47365.31;4971871;28;20271;-87
2023/10/02 00:49:41;;;;;;;26.57;17.70;;;;;;;-141.97;60.84;47511.38;4972205;28;20204;-86
2023/10/02 00:52:08;;;;;;;26.73;16.10;;;;;;;-141.97;60.59;47407.59;4971208;28;20168;-86
2023/10/02 00:54:34;;;;;;;27.40;17.70;;;;;;;-141.97;60.47;47453.72;4972460;28;20244;-89
2023/10/02 00:57:16;;;;;;;25.70;16.97;;;;;;;-141.97;60.82;47530.59;4971381;28;20226;-88
2023/10/02 00:59:45;;;;;;;24.47;17.17;;;;;;;-141.97;60.79;47497.94;4972409;28;20188;-88
2023/10/02 01:02:11;;;;;;;23.90;17.20;;;;;;;-141.97;60.87;47526.75;4971375;28;20176;-87
2023/10/02 01:04:37;;;;;;;26.80;16.93;;;;;;;-141.97;60.90;47463.34;4971881;28;20195;-86
2023/10/02 01:09:30;;;;;;;25.07;15.97;;;;;;;-141.97;60.44;47422.97;4996758;28;20158;-86
2023/10/02 01:11:57;;;;;;;29.23;18.90;;;;;;;-141.97;60.58;47628.63;4995722;28;20168;-86
2023/10/02 01:17:09;;;;;;;27.57;18.43;;;;;;;-141.97;60.67;47661.31;4974208;28;20714;-87
2023/10/02 01:19:54;;;;;;;24.43;16.77;;;;;;;-141.97;60.86;47486.41;4973274;28;20226;-86
2023/10/02 01:22:27;;;;;;;25.17;16.50;;;;;;;-141.97;60.78;47494.09;4971279;28;20168;-86
2023/10/02 01:25:13;;;;;;;27.83;18.37;;;;;;;-141.97;61.11;47499.84;4972940;28;20543;-86
2023/10/02 01:27:46;;;;;;;27.07;18.63;;;;;;;-141.97;61.22;47476.78;4976398;28;20250;-86
2023/10/02 01:30:15;;;;;;;24.43;15.90;;;;;;;-141.97;60.81;47459.50;4981442;28;20201;-87
2023/10/02 01:33:11;;;;;;;27.97;17.83;;;;;;;-141.97;61.35;47634.41;4987342;28;20176;-87
2023/10/02 01:35:48;;;;;;;26.03;16.23;;;;;;;-141.97;61.09;47528.69;4991996;28;20175;-89
2023/10/02 01:38:18;;;;;;;25.37;16.23;;;;;;;-141.97;61.28;47463.34;4989949;28;20608;-88
2023/10/02 01:40:46;;;;;;;28.63;17.97;;;;;;;-141.97;61.48;47449.88;4975885;28;20275;-88
2023/10/02 01:43:14;;;;;;;29.70;18.90;;;;;;;-141.97;61.45;47455.66;4974761;28;20164;-88
2023/10/02 01:45:43;;;;;;;29.43;17.80;;;;;;;-141.97;61.28;47605.56;4987493;28;20211;-88
2023/10/02 01:48:13;;;;;;;31.17;18.30;;;;;;;-141.97;61.46;47480.63;4973500;28;20161;-88
2023/10/02 01:50:39;;;;;;;29.23;18.10;;;;;;;-141.97;61.31;47467.19;4972059;28;20641;-89
2023/10/02 01:53:08;;;;;;;25.27;17.27;;;;;;;-141.97;61.22;47678.63;4971989;28;20176;-86
2023/10/02 01:55:35;;;;;;;24.70;16.50;;;;;;;-141.97;61.13;47513.31;4972629;28;20168;-86
2023/10/02 01:58:16;;;;;;;25.13;17.37;;;;;;;-141.97;61.19;47413.38;4972111;28;20215;-86
2023/10/02 02:00:42;;;;;;;26.60;17.70;;;;;;;-141.97;60.68;47509.47;4975319;28;20505;-85
2023/10/02 02:03:14;;;;;;;25.67;15.80;;;;;;;-141.97;60.85;47455.66;4975630;28;20615;-89
2023/10/02 02:05:39;;;;;;;28.20;17.07;;;;;;;-141.97;61.25;47509.47;4990202;28;20259;-86
2023/10/02 02:08:21;;;;;;;27.33;18.17;;;;;;;-141.97;60.99;47380.69;4976373;28;20551;-88
2023/10/02 02:10:48;;;;;;;27.67;17.87;;;;;;;-141.97;61.42;47509.47;4992959;28;20541;-88
2023/10/02 02:13:14;;;;;;;27.23;18.93;;;;;;;-141.97;61.39;47463.34;4979437;28;20247;-87
2023/10/02 02:15:47;;;;;;;27.50;18.47;;;;;;;-141.97;61.48;47422.97;4981217;28;20192;-87
2023/10/02 02:18:14;;;;;;;27.53;17.60;;;;;;;-141.97;61.35;47563.28;4991556;28;20299;-86
2023/10/02 02:20:58;;;;;;;29.23;18.40;;;;;;;-141.97;61.45;47524.84;4974533;28;20163;-87
2023/10/02 02:23:28;;;;;;;25.37;17.67;;;;;;;-141.97;61.60;47642.09;4975049;28;20164;-86
2023/10/02 02:25:53;;;;;;;27.73;17.90;;;;;;;-141.97;61.72;47474.88;4975533;28;20263;-87
2023/10/02 02:28:19;;;;;;;27.83;18.77;;;;;;;-141.97;61.36;47588.28;4989861;28;20228;-87
2023/10/02 02:30:47;;;;;;;28.43;18.53;;;;;;;-141.97;61.26;47599.81;4976287;28;20168;-87
2023/10/02 02:33:13;;;;;;;27.20;18.00;;;;;;;-141.97;61.54;47592.13;4983071;28;20171;-85
2023/10/02 02:35:41;;;;;;;27.57;17.93;;;;;;;-141.97;61.52;47486.41;4994304;28;20170;-86
2023/10/02 02:38:14;;;;;;;25.73;18.07;;;;;;;-141.97;61.57;47380.69;4994358;28;20561;-87
2023/10/02 02:40:40;;;;;;;27.80;19.33;;;;;;;-141.97;61.53;47663.22;4994408;28;20254;-86
2023/10/02 02:43:19;;;;;;;27.07;18.30;;;;;;;-141.97;61.19;47634.41;4993863;28;20239;-87
2023/10/02 02:45:45;;;;;;;25.50;18.00;;;;;;;-141.97;61.29;47373.00;4994001;28;20706;-88
2023/10/02 02:48:12;;;;;;;27.67;18.27;;;;;;;-141.97;61.37;47507.53;4993119;28;20235;-87
2023/10/02 02:50:42;;;;;;;28.47;18.13;;;;;;;-141.97;61.13;47684.38;4994543;28;20272;-86
2023/10/02 02:53:21;;;;;;;28.10;18.37;;;;;;;-141.97;61.27;47526.75;4994245;28;20230;-86
2023/10/02 02:56:23;;;;;;;28.13;18.20;;;;;;;-141.97;61.02;47544.06;4984933;28;20214;-87
2023/10/02 02:58:50;;;;;;;26.80;17.17;;;;;;;-141.97;60.96;47524.84;4974425;28;20244;-87
2023/10/02 03:01:24;;;;;;;29.20;18.27;;;;;;;-141.97;60.71;47496.00;4974776;28;20168;-86
2023/10/02 03:03:55;;;;;;;25.47;17.80;;;;;;;-141.97;60.44;47472.94;4974894;28;20168;-87
2023/10/02 03:06:23;;;;;;;27.20;17.27;;;;;;;-141.97;60.73;47442.19;4972882;28;20168;-87
2023/10/02 03:08:53;;;;;;;25.43;17.37;;;;;;;-141.97;60.61;47538.28;4974107;28;20175;-86
2023/10/02 03:11:22;;;;;;;26.83;17.37;;;;;;;-141.97;60.52;47526.75;4974111;28;20168;-88
2023/10/02 03:13:49;;;;;;;24.70;17.37;;;;;;;-141.97;60.44;47511.38;4974789;28;20184;-90
2023/10/02 03:16:28;;;;;;;27.03;17.67;;;;;;;-141.97;60.43;47695.91;4973616;28;20271;-90
2023/10/02 03:18:54;;;;;;;24.80;16.37;;;;;;;-141.97;60.29;47611.34;4973045;28;20168;-88
2023/10/02 03:21:24;;;;;;;24.37;16.53;;;;;;;-141.97;59.78;47615.19;4972333;28;20188;-88
2023/10/02 03:23:53;;;;;;;24.30;16.43;;;;;;;-141.97;59.78;47503.69;4972454;28;20172;-87
2023/10/02 03:26:27;;;;;;;23.20;15.60;;;;;;;-141.97;59.63;47699.75;4972686;28;20600;-86
2023/10/02 03:29:02;;;;;;;23.23;16.17;;;;;;;-141.97;59.79;47430.66;4974255;28;20726;-85
2023/10/02 03:31:35;;;;;;;23.50;15.30;;;;;;;-141.97;59.43;47424.91;4989732;28;20204;-90
2023/10/02 03:34:25;;;;;;;23.47;15.87;;;;;;;-141.97;59.11;47499.84;4997847;28;20172;-90
2023/10/02 03:36:52;;;;;;;24.63;15.50;;;;;;;-141.97;59.21;47442.19;4989970;28;20275;-88
2023/10/02 03:39:24;;;;;;;25.50;15.47;;;;;;;-141.97;58.82;47444.13;4993453;28;20621;-90
2023/10/02 03:41:55;;;;;;;22.43;14.70;;;;;;;-141.97;58.81;47542.16;4989606;28;20210;-88
2023/10/02 03:44:24;;;;;;;21.60;13.80;;;;;;;-141.97;58.96;47515.22;4981418;28;20188;-87
2023/10/02 03:46:51;;;;;;;21.93;13.73;;;;;;;-141.97;58.69;47692.06;4975440;28;20218;-88
2023/10/02 03:49:18;;;;;;;20.63;13.03;;;;;;;-141.97;58.46;47655.53;4974173;28;20183;-88
2023/10/02 03:51:44;;;;;;;21.93;14.00;;;;;;;-141.97;58.81;47326.88;4972746;28;20547;-88
2023/10/02 03:54:17;;;;;;;23.50;14.40;;;;;;;-141.97;58.88;47505.63;4972204;28;20168;-89
2023/10/02 03:56:50;;;;;;;19.63;12.93;;;;;;;-141.97;58.99;47476.78;4973115;28;20175;-88
2023/10/02 03:59:17;;;;;;;24.27;13.93;;;;;;;-141.97;58.97;47488.31;4972091;28;20176;-88
2023/10/02 04:01:43;;;;;;;18.50;13.40;;;;;;;-141.97;59.11;47490.25;4973952;28;20179;-89
2023/10/02 04:06:35;;;;;;;18.67;13.40;;;;;;;-141.97;59.22;47536.38;4973763;28;20626;-83
2023/10/02 04:11:39;;;;;;;18.77;12.60;;;;;;;-141.97;58.91;47519.06;4973004;28;20176;-83
2023/10/02 04:14:17;;;;;;;17.63;12.00;;;;;;;-141.97;59.14;47505.63;4987733;28;20222;-84
2023/10/02 04:16:47;;;;;;;20.40;12.97;;;;;;;-141.97;58.99;47480.63;4972532;28;20629;-82
2023/10/02 04:19:24;;;;;;;18.47;11.90;;;;;;;-141.97;59.17;47542.16;4972702;28;20625;-82
2023/10/02 04:21:56;;;;;;;22.60;13.50;;;;;;;-141.97;58.99;47519.06;4987466;28;20176;-86
2023/10/02 04:24:24;;;;;;;18.97;12.40;;;;;;;-141.97;58.93;47526.75;4971656;28;20191;-86
2023/10/02 04:26:54;;;;;;;20.50;12.50;;;;;;;-141.97;58.77;47546.00;4971593;28;20171;-85
2023/10/02 04:34:36;;;;;;;20.57;12.20;;;;;;;-141.97;58.97;47401.84;4932050;29;20185;-85
2023/10/02 04:37:19;;;;;;;19.80;12.37;;;;;;;-141.97;58.84;47507.53;4916177;29;20312;-87
2023/10/02 04:40:13;;;;;;;18.53;12.60;;;;;;;-141.97;58.62;47403.75;4916067;29;20642;-85
2023/10/02 04:42:57;;;;;;;18.70;11.23;;;;;;;-141.97;58.65;47519.06;4932407;29;20619;-86
2023/10/02 04:45:26;;;;;;;17.23;10.00;;;;;;;-141.97;58.11;47538.28;4932868;29;20288;-87
2023/10/02 04:47:55;;;;;;;20.33;12.40;;;;;;;-141.97;57.87;47503.69;4922066;29;20260;-87
2023/10/02 04:53:17;;;;;;;19.97;12.57;;;;;;;-141.97;57.85;47517.16;4934221;29;20185;-86
2023/10/02 04:55:43;;;;;;;17.97;11.70;;;;;;;-141.97;57.52;47515.22;4947031;29;20182;-87
2023/10/02 04:58:14;;;;;;;21.73;11.93;;;;;;;-141.97;57.08;47547.91;4950085;29;20236;-83
2023/10/02 05:03:28;;;;;;;20.20;11.87;;;;;;;-141.97;57.21;47511.38;4933706;29;20676;-84
2023/10/02 05:05:55;;;;;;;19.63;11.87;;;;;;;-141.97;56.55;47534.44;4916329;29;20581;-85
2023/10/02 05:08:35;;;;;;;16.83;10.80;;;;;;;-141.97;56.45;47521.00;4932053;29;20169;-84
2023/10/02 05:16:29;;;;;;;19.77;12.07;;;;;;;-141.97;56.10;47682.47;4956515;29;20192;-84
2023/10/02 05:18:55;;;;;;;16.33;9.30;;;;;;;-141.97;55.91;47488.31;4935462;29;20192;-84
2023/10/02 05:21:35;;;;;;;16.13;10.00;;;;;;;-141.97;55.72;47557.53;4951941;29;20196;-84
2023/10/02 05:24:04;;;;;;;17.43;10.60;;;;;;;-141.97;55.73;47507.53;4951268;29;20637;-84
2023/10/02 05:26:34;;;;;;;15.70;10.40;;;;;;;-141.97;55.46;47419.13;4951906;29;20200;-84
2023/10/02 05:29:01;;;;;;;16.37;9.17;;;;;;;-141.97;54.89;47499.84;4953101;28;20225;-84
2023/10/02 05:31:27;;;;;;;15.43;9.67;;;;;;;-141.97;55.10;47501.78;4952462;29;20180;-85
2023/10/02 05:33:54;;;;;;;19.57;9.33;;;;;;;-141.97;54.89;47542.16;4953206;28;20203;-85
2023/10/02 05:36:22;;;;;;;15.53;9.63;;;;;;;-141.97;54.42;47661.31;4954980;29;20189;-84
2023/10/02 05:39:27;;;;;;;16.87;9.87;;;;;;;-141.97;54.52;47449.88;4955199;28;20205;-84
2023/10/02 05:41:46;;;;;;;15.50;9.23;;;;;;;-141.97;54.57;47540.22;4955293;29;20255;-84
2023/10/02 05:44:23;;;;;;;13.10;8.30;;;;;;;-141.97;54.29;47496.00;4954903;29;20212;-84
2023/10/02 05:46:55;;;;;;;17.03;9.53;;;;;;;-141.97;54.44;47553.69;4956765;28;20772;-85
2023/10/02 05:49:23;;;;;;;13.50;8.90;;;;;;;-141.97;54.22;47422.97;4965103;28;20613;-85
2023/10/02 05:52:00;;;;;;;16.80;9.33;;;;;;;-141.97;53.54;47505.63;4962151;28;20189;-85
2023/10/02 05:54:29;;;;;;;14.97;9.17;;;;;;;-141.97;53.41;47496.00;5021810;28;20202;-85
2023/10/02 05:57:08;;;;;;;17.33;9.50;;;;;;;-141.97;52.83;47557.53;4999113;28;20196;-84
2023/10/02 05:59:46;;;;;;;14.83;8.63;;;;;;;-141.97;52.50;47515.22;4982115;28;20258;-86
2023/10/02 06:02:19;;;;;;;16.93;8.03;;;;;;;-141.97;51.69;47553.69;4975395;28;20669;-84
2023/10/02 06:04:49;;;;;;;16.37;7.97;;;;;;;-141.97;51.36;47542.16;4975008;28;20172;-85
2023/10/02 06:07:19;;;;;;;15.30;7.83;;;;;;;-141.97;50.96;47526.75;4977265;28;20184;-87
2023/10/02 06:09:46;;;;;;;10.67;7.00;;;;;;;-141.97;50.87;47532.53;4973404;28;20199;-87
2023/10/02 06:12:12;;;;;;;11.27;7.07;;;;;;;-141.97;50.67;47511.38;4973160;28;20611;-83
2023/10/02 06:14:39;;;;;;;14.17;7.27;;;;;;;-141.97;50.31;47428.75;4973569;28;20890;-85
2023/10/02 06:17:11;;;;;;;16.90;7.53;;;;;;;-141.97;50.00;47519.06;4974942;28;20188;-85
2023/10/02 06:19:43;;;;;;;11.50;7.23;;;;;;;-141.97;50.04;47411.44;4974351;28;20260;-86
2023/10/02 06:22:13;;;;;;;16.13;7.90;;;;;;;-141.97;50.06;47522.91;4974621;28;20240;-87
2023/10/02 06:24:39;;;;;;;14.67;8.00;;;;;;;-141.97;49.65;47530.59;4975315;28;20156;-85
2023/10/02 06:27:05;;;;;;;15.07;8.40;;;;;;;-141.97;49.25;47451.81;4974464;28;20259;-84
2023/10/02 06:29:33;;;;;;;15.33;7.70;;;;;;;-141.97;49.45;47415.28;4973957;28;20226;-83
2023/10/02 06:31:59;;;;;;;12.47;7.80;;;;;;;-141.97;48.98;47494.09;4974187;28;20167;-84
2023/10/02 06:34:38;;;;;;;16.23;7.73;;;;;;;-141.97;48.31;47547.91;4967901;28;20319;-84
2023/10/02 06:37:08;;;;;;;15.87;8.30;;;;;;;-141.97;47.87;47707.44;4961310;28;20907;-84
2023/10/02 06:39:38;;;;;;;12.63;8.10;;;;;;;-141.97;47.92;47488.31;4967923;28;20172;-83
2023/10/02 06:42:17;;;;;;;19.30;7.63;;;;;;;-141.97;47.49;47536.38;4956113;28;20234;-84
2023/10/02 06:44:52;;;;;;;16.77;7.57;;;;;;;-141.97;47.01;47480.63;4971500;28;20207;-83
2023/10/02 06:47:21;;;;;;;11.80;8.00;;;;;;;-141.97;47.12;47519.06;4955040;28;20188;-85
2023/10/02 06:49:47;;;;;;;13.97;7.80;;;;;;;-141.97;46.56;47509.47;4962692;28;20287;-85
2023/10/02 06:52:15;;;;;;;14.10;6.87;;;;;;;-141.97;46.70;47622.88;4974241;28;20203;-84
2023/10/02 06:54:45;;;;;;;12.37;7.67;;;;;;;-141.97;45.80;47461.41;4973726;28;20188;-85
2023/10/02 06:57:18;;;;;;;16.47;7.87;;;;;;;-141.97;46.17;47501.78;4974215;28;20199;-84
2023/10/02 06:59:51;;;;;;;19.07;8.20;;;;;;;-141.97;46.09;47530.59;4973554;28;20180;-85
2023/10/02 07:02:23;;;;;;;11.57;7.80;;;;;;;-141.97;45.91;47474.88;4974097;28;20194;-83
2023/10/02 07:04:50;;;;;;;12.17;7.57;;;;;;;-141.97;45.90;47519.06;4974201;28;20253;-81
2023/10/02 07:07:28;;;;;;;17.63;7.83;;;;;;;-141.97;45.57;47424.91;4974174;28;20227;-86
2023/10/02 07:09:57;;;;;;;12.97;7.67;;;;;;;-141.97;44.24;47515.22;4973975;28;20200;-86
2023/10/02 07:12:27;;;;;;;13.27;7.20;;;;;;;-141.97;43.91;47484.47;4974077;28;20181;-85
2023/10/02 07:15:10;;;;;;;11.90;6.97;;;;;;;-141.97;43.27;47519.06;4973152;28;20231;-84
2023/10/02 07:17:36;;;;;;;13.73;7.40;;;;;;;-141.97;43.50;47492.16;4973725;28;20727;-85
2023/10/02 07:20:03;;;;;;;12.23;7.33;;;;;;;-141.97;43.55;47513.31;4973633;28;20180;-85
2023/10/02 07:22:28;;;;;;;11.50;6.77;;;;;;;-141.97;42.93;47407.59;4974457;28;20175;-86
2023/10/02 07:24:58;;;;;;;12.03;7.90;;;;;;;-141.97;42.73;47294.22;4972267;28;20176;-86
2023/10/02 07:27:27;;;;;;;11.17;6.87;;;;;;;-141.97;41.76;47561.38;4973116;28;20184;-86
2023/10/02 07:29:55;;;;;;;13.30;6.60;;;;;;;-141.97;41.06;47634.41;4973602;28;20271;-87
2023/10/02 07:32:24;;;;;;;14.83;6.90;;;;;;;-141.97;40.47;47492.16;4980697;28;20168;-86
2023/10/02 07:34:51;;;;;;;12.57;6.60;;;;;;;-141.97;40.64;47501.78;4984296;28;20255;-85
2023/10/02 07:37:21;;;;;;;11.03;6.37;;;;;;;-141.97;40.27;47424.91;4973982;28;20204;-85
2023/10/02 07:39:48;;;;;;;13.50;6.90;;;;;;;-141.97;40.14;47688.22;4972791;28;20176;-87
2023/10/02 07:42:16;;;;;;;12.73;6.70;;;;;;;-141.97;40.08;47580.59;4974652;28;21501;-85
2023/10/02 07:44:42;;;;;;;12.13;7.07;;;;;;;-141.97;38.87;47459.50;4972732;28;20734;-85
2023/10/02 07:47:10;;;;;;;10.40;7.07;;;;;;;-141.97;38.83;47661.31;4972512;28;20172;-88
2023/10/02 07:49:38;;;;;;;14.17;7.10;;;;;;;-141.97;38.78;47453.72;4987432;28;20747;-87
2023/10/02 07:52:07;;;;;;;12.23;7.00;;;;;;;-141.97;38.21;47351.88;4972807;28;20247;-86
2023/10/02 07:54:45;;;;;;;12.67;6.90;;;;;;;-141.97;38.24;47405.69;4973542;28;20234;-88
2023/10/02 07:57:13;;;;;;;13.13;6.50;;;;;;;-141.97;38.37;47432.59;4979007;28;20215;-86
2023/10/02 07:59:43;;;;;;;15.47;6.50;;;;;;;-141.97;38.61;47426.81;4983847;28;20284;-86
2023/10/02 08:02:23;;;;;;;14.20;6.50;;;;;;;-141.97;38.38;47580.59;4979519;28;20176;-85
2023/10/02 08:04:51;;;;;;;11.20;6.67;;;;;;;-141.97;37.94;47415.28;4977645;28;20184;-85
2023/10/02 08:07:17;;;;;;;11.27;6.77;;;;;;;-141.97;37.80;47453.72;4974289;28;20231;-84
2023/10/02 08:09:47;;;;;;;12.90;6.70;;;;;;;-141.97;37.84;47434.50;4973300;28;20168;-85
2023/10/02 08:12:31;;;;;;;16.33;6.97;;;;;;;-141.97;37.40;47307.66;4971483;28;20331;-86
2023/10/02 08:18:16;;;;;;;11.83;7.33;;;;;;;-141.97;37.13;47380.69;4952300;29;20201;-84
2023/10/02 08:20:43;;;;;;;14.80;7.53;;;;;;;-141.97;37.21;47446.03;4956618;28;20204;-87
2023/10/02 08:23:21;;;;;;;11.57;7.53;;;;;;;-141.97;36.55;47476.78;4941358;28;20213;-86
2023/10/02 08:26:00;;;;;;;10.90;7.40;;;;;;;-141.97;35.84;47353.78;4933331;29;20322;-88
2023/10/02 08:28:29;;;;;;;14.87;8.00;;;;;;;-141.97;35.26;47411.44;4934906;29;20220;-84
2023/10/02 08:30:59;;;;;;;9.23;6.50;;;;;;;-141.97;35.56;47342.25;4935242;29;20196;-85
2023/10/02 08:33:26;;;;;;;10.40;7.00;;;;;;;-141.97;36.02;47476.78;4916691;29;20761;-87
2023/10/02 08:35:52;;;;;;;10.53;7.80;;;;;;;-141.97;35.69;47273.06;4933289;29;20177;-87
2023/10/02 08:38:25;;;;;;;9.87;6.60;;;;;;;-141.97;35.69;47382.63;4935362;29;20633;-87
2023/10/02 08:40:57;;;;;;;13.30;7.20;;;;;;;-141.97;35.78;47263.47;4937477;29;20229;-88
2023/10/02 08:43:24;;;;;;;16.20;7.57;;;;;;;-141.97;34.78;47334.56;4948707;29;20216;-87
2023/10/02 08:45:50;;;;;;;13.13;7.27;;;;;;;-141.97;35.35;47430.66;4948137;29;20204;-88
2023/10/02 08:48:19;;;;;;;12.20;7.53;;;;;;;-141.97;35.45;47394.16;4923494;28;20666;-87
2023/10/02 08:50:47;;;;;;;12.30;6.80;;;;;;;-141.97;35.54;47461.41;4932936;29;20170;-87
2023/10/02 08:53:20;;;;;;;11.63;6.90;;;;;;;-141.97;35.14;47457.56;4971384;28;20199;-87
2023/10/02 08:58:22;;;;;;;13.43;7.00;;;;;;;-141.97;35.35;47369.16;4992484;28;20282;-85
2023/10/02 09:04:21;;;;;;;12.10;7.43;;;;;;;-141.97;34.27;47380.69;4978589;28;20179;-85
2023/10/02 09:06:41;;;;;;;15.57;7.73;;;;;;;-141.97;33.49;47455.66;4972311;28;20609;-85
2023/10/02 09:09:21;;;;;;;13.77;7.57;;;;;;;-141.97;34.19;47442.19;4974369;28;20161;-85
2023/10/02 09:11:52;;;;;;;14.00;7.20;;;;;;;-141.97;34.31;47605.56;4976376;28;20166;-84
2023/10/02 09:14:39;;;;;;;12.77;7.77;;;;;;;-141.97;33.84;47426.81;4974770;28;20259;-85
2023/10/02 09:17:13;;;;;;;12.13;7.77;;;;;;;-141.97;33.90;47526.75;4983926;28;20277;-86
2023/10/02 09:19:51;;;;;;;14.47;7.90;;;;;;;-141.97;33.72;47422.97;4980879;28;20164;-85
2023/10/02 09:22:18;;;;;;;16.07;8.17;;;;;;;-141.97;32.76;47324.97;4985684;28;20164;-87
2023/10/02 09:24:55;;;;;;;12.23;8.37;;;;;;;-141.97;32.69;47340.34;4981075;28;20234;-87
2023/10/02 09:27:23;;;;;;;13.60;7.93;;;;;;;-141.97;33.30;47405.69;4976132;28;20222;-86
2023/10/02 09:32:47;;;;;;;13.97;7.83;;;;;;;-141.97;32.74;47444.13;4975575;28;20179;-85
2023/10/02 09:38:06;;;;;;;13.90;8.10;;;;;;;-141.97;32.62;47371.09;4976532;28;20327;-86
2023/10/02 09:43:28;;;;;;;15.20;7.43;;;;;;;-141.97;32.29;47417.22;4975340;28;20286;-85
2023/10/02 09:45:55;;;;;;;14.82;8.05;;;;;;;-141.97;32.35;47440.28;4976081;28;20180;-86
2023/10/02 09:51:30;;;;;;;13.95;7.65;;;;;;;-141.97;31.91;47405.69;4975498;28;20253;-86
2023/10/02 09:54:08;;;;;;;14.32;8.10;;;;;;;-141.97;31.61;47419.13;4975135;28;20209;-86
2023/10/02 09:57:25;;;;;;;13.18;7.88;;;;;;;-141.97;31.67;47446.03;4975437;28;20170;-86
2023/10/02 09:59:54;;;;;;;15.30;7.63;;;;;;;-141.97;32.00;47357.63;4934716;29;20323;-85
2023/10/02 10:07:52;;;;;;;14.35;8.15;;;;;;;-141.97;32.48;47430.66;4956431;29;20181;-88
2023/10/02 10:10:53;;;;;;;14.17;7.90;;;;;;;-141.97;32.02;47407.59;4941360;28;20278;-86
2023/10/02 10:13:33;;;;;;;17.08;10.70;;;;;;;-141.97;30.34;47407.59;4914087;29;20283;-86
2023/10/02 10:16:19;;;;;;;12.32;8.35;;;;;;;-141.97;30.31;47428.75;4883358;29;20201;-86
2023/10/02 10:21:55;;;;;;;13.43;7.95;;;;;;;-141.97;31.96;47398.00;4895752;29;20253;-88
2023/10/02 10:24:56;;;;;;;12.40;8.77;;;;;;;-141.97;30.01;47411.44;4879985;29;20628;-88
2023/10/02 10:30:50;;;;;;;17.83;9.25;;;;;;;-141.97;30.75;47390.31;4822001;29;20228;-87
2023/10/02 10:33:16;;;;;;;14.75;9.30;;;;;;;-141.97;29.98;47411.44;4821892;29;20784;-88
2023/10/02 10:35:51;;;;;;;13.65;8.10;;;;;;;-141.97;29.55;47411.44;4837609;29;20287;-87
2023/10/02 10:38:21;;;;;;;15.98;8.80;;;;;;;-141.97;29.30;47380.69;4843557;29;20199;-88
2023/10/02 10:40:50;;;;;;;12.15;8.50;;;;;;;-141.97;29.49;47373.00;4846984;29;20691;-86
2023/10/02 10:43:18;;;;;;;13.65;8.25;;;;;;;-141.97;29.56;47349.94;4883115;29;20178;-88
2023/10/02 10:45:48;;;;;;;14.02;8.10;;;;;;;-141.97;30.33;47396.06;4855333;29;20269;-88
2023/10/02 10:48:21;;;;;;;13.65;8.10;;;;;;;-141.97;29.59;47446.03;4851397;29;20748;-87
2023/10/02 10:51:03;;;;;;;11.68;7.70;;;;;;;-141.97;28.88;47386.47;4877267;29;20222;-85
2023/10/02 10:53:29;;;;;;;11.70;7.97;;;;;;;-141.97;28.32;47357.63;4876234;29;20205;-84
2023/10/02 10:56:16;;;;;;;15.10;7.97;;;;;;;-141.97;29.20;47411.44;4876880;29;20195;-85
2023/10/02 10:58:46;;;;;;;13.52;7.97;;;;;;;-141.97;28.61;47376.84;4876561;29;20614;-85
2023/10/02 11:01:20;;;;;;;11.35;7.20;;;;;;;-141.97;28.73;47415.28;4901217;29;20204;-84
2023/10/02 11:03:54;;;;;;;11.73;7.47;;;;;;;-141.97;28.98;47644.00;4933067;29;20188;-85
2023/10/02 11:06:23;;;;;;;20.52;8.13;;;;;;;-141.97;28.95;47497.94;4945789;28;20189;-86
2023/10/02 11:09:11;;;;;;;14.18;8.32;;;;;;;-141.97;28.83;47413.38;4973637;28;20163;-86
2023/10/02 11:11:50;;;;;;;17.63;8.43;;;;;;;-141.97;28.77;47334.56;4972758;28;20173;-85
2023/10/02 11:14:34;;;;;;;11.57;7.93;;;;;;;-141.97;28.67;47376.84;4973459;28;20182;-85
2023/10/02 11:17:04;;;;;;;12.57;7.97;;;;;;;-141.97;28.68;47376.84;4974042;28;20249;-85
2023/10/02 11:22:16;;;;;;;12.38;7.88;;;;;;;-141.97;28.69;47369.16;4973566;28;20524;-85
2023/10/02 11:24:43;;;;;;;13.35;8.85;;;;;;;-141.97;28.83;47401.84;4973192;28;20171;-85
2023/10/02 11:27:11;;;;;;;12.05;8.30;;;;;;;-141.97;29.32;47351.88;4973627;28;20178;-85
2023/10/02 11:29:45;;;;;;;15.18;8.45;;;;;;;-141.97;29.64;47342.25;4972233;28;20221;-84
2023/10/02 11:32:22;;;;;;;11.10;7.78;;;;;;;-141.97;29.28;47255.78;4973125;28;20159;-85
2023/10/02 11:35:02;;;;;;;12.80;8.27;;;;;;;-141.97;29.46;47401.84;4972809;28;20652;-85
2023/10/02 11:37:28;;;;;;;12.25;8.20;;;;;;;-141.97;29.70;47680.53;4973065;28;20589;-84
2023/10/02 11:39:55;;;;;;;13.73;8.05;;;;;;;-141.97;29.34;47484.47;4972508;28;20206;-85
2023/10/02 11:42:22;;;;;;;12.82;8.18;;;;;;;-141.97;29.13;47376.84;4973232;28;20228;-84
2023/10/02 11:44:47;;;;;;;13.70;8.10;;;;;;;-141.97;29.04;47284.59;4971934;28;20750;-84
2023/10/02 11:47:13;;;;;;;13.10;8.23;;;;;;;-141.97;28.69;47392.22;4972644;28;20235;-83
2023/10/02 11:49:40;;;;;;;11.35;8.00;;;;;;;-141.97;28.41;47407.59;4963933;28;20251;-84
2023/10/02 11:52:06;;;;;;;11.93;8.18;;;;;;;-141.97;28.57;47421.06;4972802;28;20235;-84
2023/10/02 11:54:36;;;;;;;12.77;9.13;;;;;;;-141.97;28.26;47374.94;4972804;28;20554;-85
2023/10/02 11:57:10;;;;;;;11.32;8.15;;;;;;;-141.97;27.74;47188.50;4971548;28;20731;-85
2023/10/02 11:59:50;;;;;;;15.27;8.88;;;;;;;-141.97;27.55;47342.25;4972846;28;20541;-86
2023/10/02 12:02:16;;;;;;;14.25;8.15;;;;;;;-141.97;26.66;47334.56;4971430;28;20281;-86
2023/10/02 12:04:46;;;;;;;11.80;7.85;;;;;;;-141.97;26.38;47501.78;4974179;28;20190;-85
2023/10/02 12:07:15;;;;;;;12.73;7.93;;;;;;;-141.97;25.92;47228.88;4972900;28;20233;-86
2023/10/02 12:09:41;;;;;;;14.02;8.02;;;;;;;-141.97;26.64;47398.00;4972951;28;20185;-87
2023/10/02 12:12:07;;;;;;;12.73;8.15;;;;;;;-141.97;26.99;47503.69;4972972;28;20552;-86
2023/10/02 12:14:32;;;;;;;14.95;8.55;;;;;;;-141.97;27.26;47401.84;4973830;28;20188;-86
2023/10/02 12:16:58;;;;;;;13.18;8.32;;;;;;;-141.97;26.41;47388.38;4976003;28;20188;-86
2023/10/02 12:19:28;;;;;;;12.73;8.10;;;;;;;-141.97;26.95;47299.97;4977695;28;20764;-86
2023/10/02 12:21:55;;;;;;;10.95;7.80;;;;;;;-141.97;27.68;47630.56;4975718;28;20160;-84
2023/10/02 12:24:21;;;;;;;12.43;8.13;;;;;;;-141.97;27.36;47374.94;4977853;28;20186;-85
2023/10/02 12:26:47;;;;;;;14.95;8.85;;;;;;;-141.97;27.31;47361.47;4979943;28;20166;-82
2023/10/02 12:29:12;;;;;;;11.88;7.57;;;;;;;-141.97;26.70;47359.56;4987303;28;20233;-85
2023/10/02 12:31:38;;;;;;;11.77;7.70;;;;;;;-141.97;26.33;47426.81;4976613;28;20718;-85